Time;durP1;ratioP1;P1;durP2;ratioP2;P2;SDS_P1;SDS_P2;PMS_P1;PMS_P2;Temp;Humidity;BMP_temperature;BMP_pressure;BME280_temperature;BME280_humidity;BME280_pressure;Samples;Min_cycle;Max_cycle;Signal;HPM_P1;HPM_P2
2023/01/10 00:01:25;;;;;;;;;;;6.40;99.90;;;;;;5075902;28;19977;-68
2023/01/10 00:03:51;;;;;;;;;;;6.40;99.90;;;;;;5076075;28;20370;-68
2023/01/10 00:06:16;;;;;;;;;;;6.40;99.90;;;;;;5075936;28;19908;-67
2023/01/10 00:08:42;;;;;;;;;;;6.40;99.90;;;;;;5076221;28;19908;-68
2023/01/10 00:13:53;;;;;;;;;;;6.40;99.90;;;;;;5075646;28;19916;-68
2023/01/10 00:16:19;;;;;;;;;;;6.40;99.90;;;;;;5076128;28;20381;-68
2023/01/10 00:18:44;;;;;;;;;;;6.40;99.90;;;;;;5075995;28;20284;-67
2023/01/10 00:21:10;;;;;;;;;;;6.40;99.90;;;;;;5075730;28;20422;-68
2023/01/10 00:23:35;;;;;;;;;;;6.40;99.90;;;;;;5075885;28;19916;-67
2023/01/10 00:26:01;;;;;;;;;;;6.40;99.90;;;;;;5075673;28;19940;-67
2023/01/10 00:28:26;;;;;;;;;;;6.50;99.90;;;;;;5075365;28;19974;-68
2023/01/10 00:30:55;;;;;;;;;;;6.50;99.90;;;;;;5075514;28;19904;-67
2023/01/10 00:33:20;;;;;;;;;;;6.40;99.90;;;;;;5075758;28;19909;-68
2023/01/10 00:35:46;;;;;;;;;;;6.50;99.90;;;;;;5075419;28;19909;-68
2023/01/10 00:38:12;;;;;;;;;;;6.40;99.90;;;;;;5075653;28;19916;-67
2023/01/10 00:40:38;;;;;;;;;;;6.40;99.90;;;;;;5075385;28;19909;-68
2023/01/10 00:45:49;;;;;;;;;;;6.40;99.90;;;;;;5075059;28;19909;-67
2023/01/10 00:48:15;;;;;;;;;;;6.40;99.90;;;;;;5075458;28;20286;-68
2023/01/10 00:50:41;;;;;;;;;;;6.40;99.90;;;;;;5075354;28;19912;-68
2023/01/10 00:53:06;;;;;;;;;;;6.40;99.90;;;;;;5075087;28;19915;-68
2023/01/10 00:55:33;;;;;;;;;;;6.30;99.90;;;;;;5075312;28;19909;-68
2023/01/10 00:57:59;;;;;;;;;;;6.30;99.90;;;;;;5056991;28;19916;-68
2023/01/10 01:00:25;;;;;;;;;;;6.30;99.90;;;;;;5075216;28;19958;-68
2023/01/10 01:09:03;;;;;;;;;;;6.20;99.90;;;;;;5074741;28;20324;-68
2023/01/10 01:11:28;;;;;;;;;;;6.10;99.90;;;;;;5074737;28;19913;-68
2023/01/10 01:13:54;;;;;;;;;;;6.10;99.90;;;;;;5074101;28;19916;-68
2023/01/10 01:16:20;;;;;;;;;;;6.10;99.90;;;;;;5074925;28;19962;-68
2023/01/10 01:18:45;;;;;;;;;;;6.10;99.90;;;;;;5074832;28;19916;-68
2023/01/10 01:21:11;;;;;;;;;;;6.10;99.90;;;;;;5074835;28;19930;-68
2023/01/10 01:23:37;;;;;;;;;;;6.10;99.90;;;;;;5074744;28;19915;-68
2023/01/10 01:26:02;;;;;;;;;;;6.20;99.90;;;;;;5074689;28;19909;-67
2023/01/10 01:28:28;;;;;;;;;;;6.20;99.90;;;;;;5074345;28;19916;-68
2023/01/10 01:30:53;;;;;;;;;;;6.20;99.90;;;;;;5074363;28;20358;-68
2023/01/10 01:33:19;;;;;;;;;;;6.30;99.90;;;;;;5074341;28;20361;-67
2023/01/10 01:35:46;;;;;;;;;;;6.30;99.90;;;;;;5074486;28;19913;-67
2023/01/10 01:38:12;;;;;;;;;;;6.20;99.90;;;;;;5074480;28;19915;-68
2023/01/10 01:40:38;;;;;;;;;;;6.30;99.90;;;;;;5074132;28;20353;-68
2023/01/10 01:43:04;;;;;;;;;;;6.20;99.90;;;;;;5074424;28;19951;-68
2023/01/10 01:45:37;;;;;;;;;;;6.20;99.90;;;;;;5074127;28;20011;-68
2023/01/10 01:48:08;;;;;;;;;;;6.20;99.90;;;;;;5074062;28;19912;-68
2023/01/10 01:50:37;;;;;;;;;;;6.30;99.90;;;;;;5074223;28;19923;-68
2023/01/10 01:53:06;;;;;;;;;;;6.30;99.90;;;;;;5074270;28;20426;-68
2023/01/10 01:55:33;;;;;;;;;;;6.30;99.90;;;;;;5073951;28;19908;-68
2023/01/10 01:58:00;;;;;;;;;;;6.30;99.90;;;;;;5073919;28;20053;-68
2023/01/10 02:00:26;;;;;;;;;;;6.30;99.90;;;;;;5074127;28;20369;-68
2023/01/10 02:02:53;;;;;;;;;;;6.30;99.90;;;;;;5055854;28;19971;-68
2023/01/10 02:05:21;;;;;;;;;;;6.40;99.90;;;;;;5074113;28;19909;-68
2023/01/10 02:07:49;;;;;;;;;;;6.40;99.90;;;;;;5074059;28;20377;-68
2023/01/10 02:10:16;;;;;;;;;;;6.40;99.90;;;;;;5073712;28;19912;-68
2023/01/10 02:12:43;;;;;;;;;;;6.30;99.90;;;;;;5073990;28;19908;-68
2023/01/10 02:15:09;;;;;;;;;;;6.30;99.90;;;;;;5073687;28;19912;-67
2023/01/10 02:17:34;;;;;;;;;;;6.30;99.90;;;;;;5073931;28;19909;-68
2023/01/10 02:20:03;;;;;;;;;;;6.30;99.90;;;;;;5073707;28;19955;-68
2023/01/10 02:22:41;;;;;;;;;;;6.40;99.90;;;;;;5073920;28;20411;-68
2023/01/10 02:25:26;;;;;;;;;;;6.30;99.90;;;;;;5073445;28;19995;-68
2023/01/10 02:28:12;;;;;;;;;;;6.30;99.90;;;;;;5073455;28;19954;-67
2023/01/10 02:30:48;;;;;;;;;;;6.30;99.90;;;;;;5073346;28;19921;-67
2023/01/10 02:33:33;;;;;;;;;;;6.30;99.90;;;;;;5073806;28;19908;-68
2023/01/10 02:36:05;;;;;;;;;;;6.30;99.90;;;;;;5073757;28;19966;-68
2023/01/10 02:38:50;;;;;;;;;;;6.30;99.90;;;;;;5073763;28;20007;-68
2023/01/10 02:41:29;;;;;;;;;;;6.30;99.90;;;;;;5073422;28;19974;-68
2023/01/10 02:44:02;;;;;;;;;;;6.30;99.90;;;;;;5073477;28;19909;-68
2023/01/10 02:46:29;;;;;;;;;;;6.30;99.90;;;;;;5073639;28;19908;-68
2023/01/10 02:48:55;;;;;;;;;;;6.30;99.90;;;;;;5073556;28;19923;-68
2023/01/10 02:51:22;;;;;;;;;;;6.30;99.90;;;;;;5073605;28;19913;-67
2023/01/10 02:53:50;;;;;;;;;;;6.20;99.90;;;;;;5073604;28;19912;-68
2023/01/10 02:56:28;;;;;;;;;;;6.30;99.90;;;;;;5073608;28;20369;-68
2023/01/10 02:59:03;;;;;;;;;;;6.30;99.90;;;;;;5073556;28;20326;-68
2023/01/10 03:01:48;;;;;;;;;;;6.30;99.90;;;;;;5073547;28;20267;-68
2023/01/10 03:04:23;;;;;;;;;;;6.30;99.90;;;;;;5073114;28;20434;-68
2023/01/10 03:06:55;;;;;;;;;;;6.20;99.90;;;;;;5073476;28;20259;-68
2023/01/10 03:09:31;;;;;;;;;;;6.20;99.90;;;;;;5073388;28;19913;-68
2023/01/10 03:12:01;;;;;;;;;;;6.10;99.90;;;;;;5073437;28;19908;-68
2023/01/10 03:14:29;;;;;;;;;;;6.00;99.90;;;;;;5073112;28;19916;-68
2023/01/10 03:16:57;;;;;;;;;;;6.00;99.90;;;;;;5073326;28;20053;-68
2023/01/10 03:19:26;;;;;;;;;;;5.90;99.90;;;;;;5073321;28;20017;-68
2023/01/10 03:21:54;;;;;;;;;;;5.80;99.90;;;;;;5073335;28;19908;-68
2023/01/10 03:24:24;;;;;;;;;;;5.80;99.90;;;;;;5073044;28;19912;-65
2023/01/10 03:26:55;;;;;;;;;;;5.80;99.90;;;;;;5073277;28;19915;-68
2023/01/10 03:29:24;;;;;;;;;;;5.70;99.90;;;;;;5072855;28;20330;-68
2023/01/10 03:31:52;;;;;;;;;;;5.70;99.90;;;;;;5073230;28;19931;-67
2023/01/10 03:34:18;;;;;;;;;;;5.70;99.90;;;;;;5072958;28;19916;-68
2023/01/10 03:36:51;;;;;;;;;;;5.70;99.90;;;;;;5074038;28;19908;-68
2023/01/10 03:39:20;;;;;;;;;;;5.70;99.90;;;;;;5076632;28;19908;-68
2023/01/10 03:41:48;;;;;;;;;;;5.70;99.90;;;;;;5077117;28;20409;-68
2023/01/10 03:44:47;;;;;;;;;;;5.80;99.90;;;;;;5076719;28;19919;-68
2023/01/10 03:47:05;;;;;;;;;;;5.80;99.90;;;;;;5076176;28;19954;-68
2023/01/10 03:49:32;;;;;;;;;;;5.90;99.90;;;;;;5076281;28;19919;-68
2023/01/10 03:51:59;;;;;;;;;;;5.90;99.90;;;;;;5076536;28;19947;-68
2023/01/10 03:54:24;;;;;;;;;;;5.90;99.90;;;;;;5076552;28;19909;-68
2023/01/10 03:56:50;;;;;;;;;;;5.90;99.90;;;;;;5076221;28;19915;-68
2023/01/10 03:59:17;;;;;;;;;;;5.90;99.90;;;;;;5076501;28;20009;-68
2023/01/10 04:01:43;;;;;;;;;;;5.90;99.90;;;;;;5076133;28;19908;-68
2023/01/10 04:04:08;;;;;;;;;;;6.00;99.90;;;;;;5076312;28;19909;-68
2023/01/10 04:06:34;;;;;;;;;;;6.00;99.90;;;;;;5076296;28;20417;-68
2023/01/10 04:08:59;;;;;;;;;;;5.90;99.90;;;;;;5076203;28;19916;-68
2023/01/10 04:11:25;;;;;;;;;;;5.90;99.90;;;;;;5076230;28;20003;-68
2023/01/10 04:13:50;;;;;;;;;;;6.00;99.90;;;;;;5058142;28;19921;-68
2023/01/10 04:16:16;;;;;;;;;;;6.00;99.90;;;;;;5075868;28;19909;-68
2023/01/10 04:18:41;;;;;;;;;;;5.90;99.90;;;;;;5075721;28;19908;-68
2023/01/10 04:21:07;;;;;;;;;;;5.80;99.90;;;;;;5075788;28;19961;-68
2023/01/10 04:23:32;;;;;;;;;;;5.80;99.90;;;;;;5075987;28;19909;-68
2023/01/10 04:25:57;;;;;;;;;;;5.80;99.90;;;;;;5075886;28;20347;-68
2023/01/10 04:28:23;;;;;;;;;;;5.70;99.90;;;;;;5075422;28;19919;-67
2023/01/10 04:30:48;;;;;;;;;;;5.70;99.90;;;;;;5075779;28;19909;-68
2023/01/10 04:33:14;;;;;;;;;;;5.70;99.90;;;;;;5075808;28;19908;-68
2023/01/10 04:35:39;;;;;;;;;;;5.70;99.90;;;;;;5075475;28;19912;-68
2023/01/10 04:38:05;;;;;;;;;;;5.70;99.90;;;;;;5075425;28;19909;-67
2023/01/10 04:40:30;;;;;;;;;;;5.70;99.90;;;;;;5075380;28;19941;-68
2023/01/10 04:42:56;;;;;;;;;;;5.60;99.90;;;;;;5075340;28;19915;-68
2023/01/10 04:45:21;;;;;;;;;;;5.60;99.90;;;;;;5057734;28;19908;-68
2023/01/10 04:47:49;;;;;;;;;;;5.60;99.90;;;;;;5075559;28;19958;-68
2023/01/10 04:50:15;;;;;;;;;;;5.60;99.90;;;;;;5075385;28;19912;-68
2023/01/10 04:52:42;;;;;;;;;;;5.60;99.90;;;;;;5057629;28;19916;-68
2023/01/10 04:55:08;;;;;;;;;;;5.60;99.90;;;;;;5075374;28;19951;-68
2023/01/10 04:57:33;;;;;;;;;;;5.60;99.90;;;;;;5075072;28;19919;-68
2023/01/10 04:59:59;;;;;;;;;;;5.60;99.90;;;;;;5075229;28;19909;-68
2023/01/10 05:02:24;;;;;;;;;;;5.60;99.90;;;;;;5075203;28;19991;-68
2023/01/10 05:04:49;;;;;;;;;;;5.60;99.90;;;;;;5057196;28;19916;-68
2023/01/10 05:07:15;;;;;;;;;;;5.60;99.90;;;;;;5075114;28;19908;-68
2023/01/10 05:09:41;;;;;;;;;;;5.50;99.90;;;;;;5040244;28;20374;-68
2023/01/10 05:12:07;;;;;;;;;;;5.60;99.90;;;;;;5074758;28;19999;-68
2023/01/10 05:14:33;;;;;;;;;;;5.60;99.90;;;;;;5074709;28;19952;-68
2023/01/10 05:16:58;;;;;;;;;;;5.70;99.90;;;;;;5074938;28;19962;-68
2023/01/10 05:19:23;;;;;;;;;;;5.70;99.90;;;;;;5074823;28;19936;-68
2023/01/10 05:21:51;;;;;;;;;;;5.60;99.90;;;;;;5074615;28;19947;-68
2023/01/10 05:24:16;;;;;;;;;;;5.60;99.90;;;;;;5074545;28;19958;-69
2023/01/10 05:26:42;;;;;;;;;;;5.70;99.90;;;;;;5074496;28;20362;-68
2023/01/10 05:29:11;;;;;;;;;;;5.70;99.90;;;;;;5074260;28;19982;-68
2023/01/10 05:31:36;;;;;;;;;;;5.70;99.90;;;;;;5074300;28;19959;-68
2023/01/10 05:34:02;;;;;;;;;;;5.70;99.90;;;;;;5074576;28;19944;-68
2023/01/10 05:36:27;;;;;;;;;;;5.70;99.90;;;;;;5074501;28;19915;-68
2023/01/10 05:38:52;;;;;;;;;;;5.80;99.90;;;;;;5074503;28;19965;-68
2023/01/10 05:41:18;;;;;;;;;;;5.80;99.90;;;;;;5056405;28;20289;-68
2023/01/10 05:43:43;;;;;;;;;;;5.80;99.90;;;;;;5074161;28;19915;-68
2023/01/10 05:46:09;;;;;;;;;;;5.80;99.90;;;;;;5074083;28;19909;-68
2023/01/10 05:48:34;;;;;;;;;;;5.90;99.90;;;;;;5073970;28;20352;-68
2023/01/10 05:51:00;;;;;;;;;;;5.90;99.90;;;;;;5074219;28;19912;-68
2023/01/10 05:53:25;;;;;;;;;;;5.90;99.90;;;;;;5067106;28;19948;-67
2023/01/10 05:55:53;;;;;;;;;;;5.90;99.90;;;;;;5069792;28;19919;-68
2023/01/10 05:58:18;;;;;;;;;;;5.90;99.90;;;;;;5074222;28;20381;-68
2023/01/10 06:00:44;;;;;;;;;;;5.90;99.90;;;;;;5068083;28;19912;-68
2023/01/10 06:03:09;;;;;;;;;;;5.90;99.90;;;;;;5055161;28;19913;-68
2023/01/10 06:05:35;;;;;;;;;;;5.80;99.90;;;;;;5072597;28;19973;-68
2023/01/10 06:08:00;;;;;;;;;;;5.80;99.90;;;;;;5064699;28;19928;-68
2023/01/10 06:10:26;;;;;;;;;;;5.80;99.90;;;;;;5073924;28;19913;-68
2023/01/10 06:12:51;;;;;;;;;;;5.90;99.90;;;;;;5073095;28;19916;-68
2023/01/10 06:15:17;;;;;;;;;;;5.90;99.90;;;;;;5055694;28;19913;-67
2023/01/10 06:17:43;;;;;;;;;;;5.90;99.90;;;;;;5069410;28;19913;-68
2023/01/10 06:20:09;;;;;;;;;;;5.90;99.90;;;;;;5073850;28;19908;-68
2023/01/10 06:22:35;;;;;;;;;;;5.90;99.90;;;;;;5073585;28;19913;-68
2023/01/10 06:25:00;;;;;;;;;;;5.80;99.90;;;;;;5072408;28;19913;-68
2023/01/10 06:27:25;;;;;;;;;;;5.90;99.90;;;;;;5073787;28;19915;-68
2023/01/10 06:29:51;;;;;;;;;;;5.80;99.90;;;;;;5073270;28;19966;-68
2023/01/10 06:32:16;;;;;;;;;;;5.80;99.90;;;;;;5073797;28;19909;-68
2023/01/10 06:34:42;;;;;;;;;;;5.80;99.90;;;;;;5074277;28;19983;-68
2023/01/10 06:37:10;;;;;;;;;;;5.90;99.90;;;;;;5073693;28;19915;-69
2023/01/10 06:39:36;;;;;;;;;;;5.80;99.90;;;;;;5039319;28;20309;-69
2023/01/10 06:42:01;;;;;;;;;;;5.80;99.90;;;;;;5072297;28;19955;-68
2023/01/10 06:44:27;;;;;;;;;;;5.80;99.90;;;;;;5072160;28;20046;-68
2023/01/10 06:46:52;;;;;;;;;;;5.80;99.90;;;;;;5035252;28;20290;-67
2023/01/10 06:49:18;;;;;;;;;;;5.80;99.90;;;;;;5058584;28;19917;-67
2023/01/10 06:51:43;;;;;;;;;;;5.80;99.90;;;;;;5073608;28;19933;-68
2023/01/10 06:54:08;;;;;;;;;;;5.80;99.90;;;;;;5058458;28;19913;-68
2023/01/10 06:56:34;;;;;;;;;;;5.70;99.90;;;;;;5073424;28;19997;-67
2023/01/10 06:58:59;;;;;;;;;;;5.80;99.90;;;;;;5072299;28;19913;-68
2023/01/10 07:01:25;;;;;;;;;;;5.70;99.90;;;;;;5073195;28;19909;-68
2023/01/10 07:03:50;;;;;;;;;;;5.70;99.90;;;;;;5072270;28;19962;-68
2023/01/10 07:06:16;;;;;;;;;;;5.70;99.90;;;;;;5073179;28;19908;-68
2023/01/10 07:08:43;;;;;;;;;;;5.70;99.90;;;;;;5072324;28;20016;-68
2023/01/10 07:11:09;;;;;;;;;;;5.80;99.90;;;;;;5072360;28;19922;-67
2023/01/10 07:13:35;;;;;;;;;;;5.80;99.90;;;;;;5076778;28;19947;-68
2023/01/10 07:16:01;;;;;;;;;;;5.80;99.90;;;;;;5075077;28;19912;-68
2023/01/10 07:18:27;;;;;;;;;;;5.80;99.90;;;;;;5076778;28;19909;-67
2023/01/10 07:20:54;;;;;;;;;;;5.80;99.90;;;;;;5073723;28;19912;-68
2023/01/10 07:23:19;;;;;;;;;;;5.80;99.90;;;;;;5078119;28;19912;-68
2023/01/10 07:25:45;;;;;;;;;;;5.80;99.90;;;;;;5077126;28;19915;-68
2023/01/10 07:28:10;;;;;;;;;;;5.80;99.90;;;;;;5076407;28;19908;-68
2023/01/10 07:30:36;;;;;;;;;;;5.80;99.90;;;;;;5076851;28;19919;-68
2023/01/10 07:33:02;;;;;;;;;;;5.80;99.90;;;;;;5076799;28;20003;-68
2023/01/10 07:35:28;;;;;;;;;;;5.90;99.90;;;;;;5075838;28;20389;-68
2023/01/10 07:37:56;;;;;;;;;;;5.90;99.90;;;;;;5074123;28;19920;-68
2023/01/10 07:40:22;;;;;;;;;;;5.80;99.90;;;;;;5061691;28;19919;-68
2023/01/10 07:42:47;;;;;;;;;;;5.90;99.90;;;;;;5056489;28;20339;-68
2023/01/10 07:45:13;;;;;;;;;;;5.90;99.90;;;;;;5056622;28;19913;-68
2023/01/10 07:47:38;;;;;;;;;;;5.90;99.90;;;;;;5061708;28;19982;-67
2023/01/10 07:50:04;;;;;;;;;;;5.90;99.90;;;;;;5056409;28;19913;-68
2023/01/10 07:52:29;;;;;;;;;;;6.00;99.90;;;;;;5072221;28;20010;-68
2023/01/10 07:54:55;;;;;;;;;;;6.00;99.90;;;;;;5076209;28;19908;-68
2023/01/10 07:57:20;;;;;;;;;;;6.00;99.90;;;;;;5057624;28;20370;-67
2023/01/10 07:59:46;;;;;;;;;;;6.00;99.90;;;;;;5075019;28;19912;-68
2023/01/10 08:02:11;;;;;;;;;;;6.00;99.90;;;;;;5076167;28;19910;-68
2023/01/10 08:04:37;;;;;;;;;;;6.00;99.90;;;;;;5074194;28;20427;-67
2023/01/10 08:07:03;;;;;;;;;;;6.10;99.90;;;;;;5076031;28;20392;-68
2023/01/10 08:09:28;;;;;;;;;;;6.10;99.90;;;;;;5056103;28;19917;-69
2023/01/10 08:11:54;;;;;;;;;;;6.10;99.90;;;;;;5064525;28;19919;-69
2023/01/10 08:14:19;;;;;;;;;;;6.20;99.90;;;;;;5075178;28;19913;-68
2023/01/10 08:16:45;;;;;;;;;;;6.20;99.90;;;;;;5075795;28;19909;-68
2023/01/10 08:19:15;;;;;;;;;;;6.20;99.90;;;;;;5074766;28;20367;-68
2023/01/10 08:21:41;;;;;;;;;;;6.20;99.90;;;;;;5068095;28;19912;-67
2023/01/10 08:24:06;;;;;;;;;;;6.20;99.90;;;;;;5056218;28;19919;-68
2023/01/10 08:26:32;;;;;;;;;;;6.20;99.90;;;;;;5056699;28;20004;-67
2023/01/10 08:28:57;;;;;;;;;;;6.20;99.90;;;;;;5055420;28;19928;-68
2023/01/10 08:31:23;;;;;;;;;;;6.20;99.90;;;;;;5073587;28;20326;-66
2023/01/10 08:33:49;;;;;;;;;;;6.20;99.90;;;;;;5071928;28;19966;-66
2023/01/10 08:36:15;;;;;;;;;;;6.20;99.90;;;;;;5056259;28;19917;-66
2023/01/10 08:38:41;;;;;;;;;;;6.30;99.90;;;;;;5056199;28;19912;-67
2023/01/10 08:41:06;;;;;;;;;;;6.30;99.90;;;;;;5066130;28;19919;-66
2023/01/10 08:43:32;;;;;;;;;;;6.20;99.90;;;;;;5075160;28;19909;-66
2023/01/10 08:45:57;;;;;;;;;;;6.30;99.90;;;;;;5075307;28;20385;-66
2023/01/10 08:48:23;;;;;;;;;;;6.30;99.90;;;;;;5074500;28;20065;-66
2023/01/10 08:50:48;;;;;;;;;;;6.30;99.90;;;;;;5074025;28;19964;-66
2023/01/10 08:53:13;;;;;;;;;;;6.30;99.90;;;;;;5075289;28;19913;-65
2023/01/10 08:55:39;;;;;;;;;;;6.40;99.90;;;;;;5058549;28;19920;-67
2023/01/10 08:58:04;;;;;;;;;;;6.40;99.90;;;;;;5054991;28;19909;-67
2023/01/10 09:00:30;;;;;;;;;;;6.40;99.90;;;;;;5068510;28;19916;-67
2023/01/10 09:02:56;;;;;;;;;;;6.50;99.90;;;;;;5070265;28;19912;-67
2023/01/10 09:05:21;;;;;;;;;;;6.50;99.90;;;;;;5075032;28;19915;-67
2023/01/10 09:07:47;;;;;;;;;;;6.50;99.90;;;;;;5075278;28;19999;-67
2023/01/10 09:10:12;;;;;;;;;;;6.50;99.90;;;;;;5063677;28;19916;-67
2023/01/10 09:13:09;;;;;;;;;;;6.50;99.90;;;;;;5036962;28;20030;-67
2023/01/10 09:15:24;;;;;;;;;;;6.50;99.90;;;;;;5062852;28;19920;-67
2023/01/10 09:17:52;;;;;;;;;;;6.50;99.90;;;;;;5069328;28;19974;-67
2023/01/10 09:20:17;;;;;;;;;;;6.50;99.90;;;;;;5070887;28;19913;-67
2023/01/10 09:22:43;;;;;;;;;;;6.50;99.90;;;;;;5067365;28;19932;-67
2023/01/10 09:25:08;;;;;;;;;;;6.50;99.90;;;;;;5074228;28;19909;-67
2023/01/10 09:27:34;;;;;;;;;;;6.60;99.90;;;;;;5073594;28;19923;-67
2023/01/10 09:29:59;;;;;;;;;;;6.60;99.90;;;;;;5073100;28;19926;-68
2023/01/10 09:32:25;;;;;;;;;;;6.70;99.90;;;;;;5056235;28;19916;-67
2023/01/10 09:34:50;;;;;;;;;;;6.70;99.90;;;;;;5073844;28;19908;-67
2023/01/10 09:37:16;;;;;;;;;;;6.70;99.90;;;;;;5071068;28;20362;-68
2023/01/10 09:39:42;;;;;;;;;;;6.60;99.90;;;;;;5074090;28;19959;-67
2023/01/10 09:42:27;;;;;;;;;;;6.70;99.90;;;;;;5053984;28;19909;-67
2023/01/10 09:45:01;;;;;;;;;;;6.70;99.90;;;;;;5071909;28;20366;-67
2023/01/10 09:47:47;;;;;;;;;;;6.70;99.90;;;;;;5064874;28;19916;-67
2023/01/10 09:50:18;;;;;;;;;;;6.70;99.90;;;;;;5073862;28;19912;-66
2023/01/10 09:52:46;;;;;;;;;;;6.70;99.90;;;;;;5073151;28;20346;-66
2023/01/10 09:55:28;;;;;;;;;;;6.70;99.90;;;;;;5073944;28;19917;-67
2023/01/10 09:57:56;;;;;;;;;;;6.70;99.90;;;;;;5073193;28;19912;-67
2023/01/10 10:00:23;;;;;;;;;;;6.70;99.90;;;;;;5074059;28;20393;-67
2023/01/10 10:02:51;;;;;;;;;;;6.70;99.90;;;;;;5065913;28;19908;-67
2023/01/10 10:05:20;;;;;;;;;;;6.80;99.90;;;;;;5054011;28;19920;-67
2023/01/10 10:07:49;;;;;;;;;;;6.80;99.90;;;;;;5054286;28;20054;-67
2023/01/10 10:10:17;;;;;;;;;;;6.90;99.90;;;;;;5072578;28;19924;-67
2023/01/10 10:12:49;;;;;;;;;;;6.90;99.90;;;;;;5073663;28;19909;-67
2023/01/10 10:15:26;;;;;;;;;;;6.90;99.90;;;;;;5072853;28;19991;-67
2023/01/10 10:18:09;;;;;;;;;;;6.90;99.90;;;;;;5054621;28;19913;-67
2023/01/10 10:20:39;;;;;;;;;;;6.90;99.90;;;;;;5065223;28;19920;-67
2023/01/10 10:23:24;;;;;;;;;;;7.00;99.90;;;;;;5073555;28;19919;-67
2023/01/10 10:28:47;;;;;;;;;;;7.10;99.90;;;;;;5107303;27;1882009;-68
2023/01/10 10:31:32;;;;;;;;;;;7.10;99.90;;;;;;5173193;27;19911;-66
2023/01/10 10:34:18;;;;;;;;;;;7.30;99.90;;;;;;5159791;27;19907;-66
2023/01/10 10:36:49;;;;;;;;;;;7.20;99.90;;;;;;5152426;27;20284;-66
2023/01/10 10:39:20;;;;;;;;;;;7.30;99.90;;;;;;5152340;27;19908;-67
2023/01/10 10:41:48;;;;;;;;;;;7.40;99.90;;;;;;5153733;27;19908;-67
2023/01/10 10:44:32;;;;;;;;;;;7.30;99.90;;;;;;5173181;27;19918;-67
2023/01/10 10:46:58;;;;;;;;;;;7.30;99.90;;;;;;5170541;27;19915;-67
2023/01/10 10:49:36;;;;;;;;;;;7.30;99.90;;;;;;5173191;27;19963;-67
2023/01/10 10:52:02;;;;;;;;;;;7.30;99.90;;;;;;5169560;27;20279;-67
2023/01/10 10:54:29;;;;;;;;;;;7.20;99.90;;;;;;5152262;27;19911;-67
2023/01/10 10:56:55;;;;;;;;;;;7.30;99.90;;;;;;5154091;27;19911;-67
2023/01/10 10:59:20;;;;;;;;;;;7.30;99.90;;;;;;5173108;27;19915;-67
2023/01/10 11:01:48;;;;;;;;;;;7.40;99.90;;;;;;5167639;27;19913;-67
2023/01/10 11:04:15;;;;;;;;;;;7.50;99.90;;;;;;5151871;27;19971;-67
2023/01/10 11:06:47;;;;;;;;;;;7.70;99.90;;;;;;5154516;27;19911;-67
2023/01/10 11:09:14;;;;;;;;;;;7.70;99.90;;;;;;5152851;27;20416;-67
2023/01/10 11:11:43;;;;;;;;;;;7.70;99.90;;;;;;5172618;27;19907;-67
2023/01/10 11:14:09;;;;;;;;;;;7.70;99.90;;;;;;5162367;27;20407;-67
2023/01/10 11:16:36;;;;;;;;;;;7.80;99.90;;;;;;5158988;27;19919;-67
2023/01/10 11:19:08;;;;;;;;;;;7.90;99.90;;;;;;5137583;27;19961;-67
2023/01/10 11:21:33;;;;;;;;;;;7.80;99.90;;;;;;5171993;27;19911;-68
2023/01/10 11:23:59;;;;;;;;;;;7.90;99.90;;;;;;5171725;27;19955;-67
2023/01/10 11:26:39;;;;;;;;;;;8.10;99.90;;;;;;5165936;27;19911;-67
2023/01/10 11:29:08;;;;;;;;;;;8.20;99.90;;;;;;5169312;27;20016;-67
2023/01/10 11:31:35;;;;;;;;;;;8.20;99.90;;;;;;5166776;27;19911;-67
2023/01/10 11:34:03;;;;;;;;;;;8.20;99.90;;;;;;5159184;27;19971;-67
2023/01/10 11:36:49;;;;;;;;;;;8.10;99.90;;;;;;5133949;27;20052;-67
2023/01/10 11:39:16;;;;;;;;;;;8.10;99.90;;;;;;5153784;27;19918;-67
2023/01/10 11:41:42;;;;;;;;;;;8.00;99.90;;;;;;5145245;27;19980;-67
2023/01/10 11:44:16;;;;;;;;;;;8.00;99.90;;;;;;5138601;27;20369;-68
2023/01/10 11:46:42;;;;;;;;;;;8.00;99.90;;;;;;5157638;27;19915;-67
2023/01/10 11:49:13;;;;;;;;;;;8.00;99.90;;;;;;5147051;27;19915;-67
2023/01/10 11:51:43;;;;;;;;;;;8.00;99.90;;;;;;5141322;27;19918;-67
2023/01/10 11:54:11;;;;;;;;;;;8.00;99.90;;;;;;5137491;27;20380;-68
2023/01/10 11:56:38;;;;;;;;;;;8.00;99.90;;;;;;5142637;27;19911;-68
2023/01/10 11:59:12;;;;;;;;;;;8.00;99.90;;;;;;5146871;27;19912;-67
2023/01/10 12:01:40;;;;;;;;;;;8.00;99.90;;;;;;5105956;27;19920;-67
2023/01/10 12:04:05;;;;;;;;;;;8.10;99.90;;;;;;5119212;27;20292;-67
2023/01/10 12:06:32;;;;;;;;;;;8.10;99.90;;;;;;5141521;27;19915;-68
2023/01/10 12:08:57;;;;;;;;;;;8.10;99.90;;;;;;5138635;27;20510;-67
2023/01/10 12:11:31;;;;;;;;;;;8.20;99.90;;;;;;5157882;27;19907;-67
2023/01/10 12:13:59;;;;;;;;;;;8.00;99.90;;;;;;5136517;27;20291;-67
2023/01/10 12:16:26;;;;;;;;;;;8.10;99.90;;;;;;5148586;27;19911;-68
2023/01/10 12:18:52;;;;;;;;;;;8.20;99.90;;;;;;5156380;27;19907;-68
2023/01/10 12:21:20;;;;;;;;;;;8.10;99.90;;;;;;5127069;27;19911;-67
2023/01/10 12:23:46;;;;;;;;;;;8.00;99.90;;;;;;5154714;27;20260;-67
2023/01/10 12:26:12;;;;;;;;;;;7.90;99.90;;;;;;5118008;27;19911;-67
2023/01/10 12:28:42;;;;;;;;;;;7.90;99.90;;;;;;5142613;27;19926;-67
2023/01/10 12:31:11;;;;;;;;;;;7.80;99.90;;;;;;5149619;27;19990;-67
2023/01/10 12:33:39;;;;;;;;;;;7.80;99.90;;;;;;5143101;27;19971;-67
2023/01/10 12:36:14;;;;;;;;;;;7.80;99.90;;;;;;5140877;27;19911;-67
2023/01/10 12:39:17;;;;;;;;;;;7.80;99.90;;;;;;5141641;27;19921;-67
2023/01/10 12:44:31;;;;;;;;;;;7.90;99.90;;;;;;5144846;27;19911;-67
2023/01/10 12:47:00;;;;;;;;;;;7.90;99.90;;;;;;5136153;27;19916;-67
2023/01/10 12:49:31;;;;;;;;;;;7.90;99.90;;;;;;5142613;27;19907;-67
2023/01/10 12:52:00;;;;;;;;;;;7.90;99.90;;;;;;5153851;27;19911;-68
2023/01/10 12:54:28;;;;;;;;;;;7.90;99.90;;;;;;5155171;27;19952;-67
2023/01/10 12:56:54;;;;;;;;;;;7.90;99.90;;;;;;5155001;27;19911;-67
2023/01/10 12:59:22;;;;;;;;;;;7.90;99.90;;;;;;5149952;27;19954;-67
2023/01/10 13:01:52;;;;;;;;;;;7.90;99.90;;;;;;5150165;27;19911;-67
2023/01/10 13:04:21;;;;;;;;;;;7.90;99.90;;;;;;5136818;27;19914;-68
2023/01/10 13:06:47;;;;;;;;;;;7.90;99.90;;;;;;5135634;27;19912;-68
2023/01/10 13:09:16;;;;;;;;;;;8.00;99.90;;;;;;5123772;27;19952;-68
2023/01/10 13:11:45;;;;;;;;;;;8.00;99.90;;;;;;5156554;27;19911;-68
2023/01/10 13:14:13;;;;;;;;;;;8.00;99.90;;;;;;5155346;27;19911;-67
2023/01/10 13:22:15;;;;;;;;;;;8.00;99.90;;;;;;5091230;27;19912;-67
2023/01/10 13:24:41;;;;;;;;;;;8.00;99.90;;;;;;5076357;28;19916;-66
2023/01/10 13:27:16;;;;;;;;;;;8.00;99.90;;;;;;5077193;28;19963;-67
2023/01/10 13:29:42;;;;;;;;;;;8.00;99.90;;;;;;5084975;28;20010;-67
2023/01/10 13:32:25;;;;;;;;;;;8.00;99.90;;;;;;5091074;28;19999;-68
2023/01/10 13:34:51;;;;;;;;;;;8.10;99.90;;;;;;5089733;28;19912;-69
2023/01/10 13:37:29;;;;;;;;;;;8.20;99.90;;;;;;5090817;28;20393;-68
2023/01/10 13:39:59;;;;;;;;;;;8.10;99.90;;;;;;5084793;28;19975;-69
2023/01/10 13:45:15;;;;;;;;;;;8.20;99.90;;;;;;5089512;28;19915;-69
2023/01/10 14:03:45;;;;;;;;;;;8.10;99.90;;;;;;5069817;28;19913;-66
2023/01/10 14:06:15;;;;;;;;;;;8.00;99.90;;;;;;5071620;28;19913;-67
2023/01/10 14:08:47;;;;;;;;;;;8.00;99.90;;;;;;5051088;28;19917;-66
2023/01/10 14:11:12;;;;;;;;;;;8.00;99.90;;;;;;5062770;28;20003;-66
2023/01/10 14:13:45;;;;;;;;;;;7.90;99.90;;;;;;5069541;28;19951;-66
2023/01/10 14:16:30;;;;;;;;;;;8.00;99.90;;;;;;5069396;28;19916;-66
2023/01/10 14:18:56;;;;;;;;;;;7.90;99.90;;;;;;5070470;28;19913;-67
2023/01/10 14:21:24;;;;;;;;;;;7.90;99.90;;;;;;5068553;28;19912;-67
2023/01/10 14:23:50;;;;;;;;;;;7.90;99.90;;;;;;5073333;28;20332;-67
2023/01/10 14:26:35;;;;;;;;;;;7.90;99.90;;;;;;5070894;28;19909;-66
2023/01/10 14:29:05;;;;;;;;;;;7.90;99.90;;;;;;5069235;28;19920;-67
2023/01/10 14:31:31;;;;;;;;;;;7.90;99.90;;;;;;5068595;28;19942;-67
2023/01/10 14:33:57;;;;;;;;;;;7.90;99.90;;;;;;5069937;28;19913;-67
2023/01/10 14:36:26;;;;;;;;;;;7.90;99.90;;;;;;5062624;28;19913;-67
2023/01/10 14:38:54;;;;;;;;;;;7.90;99.90;;;;;;5069538;28;19912;-67
2023/01/10 14:41:21;;;;;;;;;;;7.80;99.90;;;;;;5070261;28;19995;-67
2023/01/10 14:43:51;;;;;;;;;;;7.90;99.90;;;;;;5070274;28;19909;-67
2023/01/10 14:46:21;;;;;;;;;;;7.80;99.90;;;;;;5070174;28;20392;-67
2023/01/10 14:48:50;;;;;;;;;;;7.80;99.90;;;;;;5069918;28;19912;-68
2023/01/10 14:54:13;;;;;;;;;;;7.70;99.90;;;;;;5091160;27;19912;-66
2023/01/10 14:56:41;;;;;;;;;;;7.80;99.90;;;;;;5090966;28;19959;-66
2023/01/10 15:02:09;;;;;;;;;;;7.70;99.90;;;;;;5091134;27;19919;-66
2023/01/10 15:04:35;;;;;;;;;;;7.70;99.90;;;;;;5091078;28;19918;-66
2023/01/10 15:07:08;;;;;;;;;;;7.70;99.90;;;;;;5091275;28;19908;-66
2023/01/10 15:09:33;;;;;;;;;;;7.70;99.90;;;;;;5091168;28;19908;-66
2023/01/10 15:12:01;;;;;;;;;;;7.70;99.90;;;;;;5090895;28;20373;-66
2023/01/10 15:14:28;;;;;;;;;;;7.70;99.90;;;;;;5090909;28;20289;-66
2023/01/10 15:16:56;;;;;;;;;;;7.60;99.90;;;;;;5090802;28;20385;-66
2023/01/10 15:19:22;;;;;;;;;;;7.60;99.90;;;;;;5091140;28;20270;-66
2023/01/10 15:21:48;;;;;;;;;;;7.60;99.90;;;;;;5091029;28;19920;-66
2023/01/10 15:24:31;;;;;;;;;;;7.60;99.90;;;;;;5089371;28;20286;-67